Time;durP1;ratioP1;P1;durP2;ratioP2;P2;SDS_P1;SDS_P2;PMS_P1;PMS_P2;Temp;Humidity;BMP_temperature;BMP_pressure;BME280_temperature;BME280_humidity;BME280_pressure;Samples;Min_cycle;Max_cycle;Signal;HPM_P1;HPM_P2
2019/12/20 00:07:51;;;;;;;11.35;6.249999;;;;;;;2.59;80.47656;94062.86;;;;
2019/12/20 00:08:55;;;;;;;11.35;6.249999;;;;;;;2.59;80.47656;94062.86;;;;
2019/12/20 00:10:14;;;;;;;11.35;6.249999;;;;;;;2.59;80.47656;94062.86;;;;
2019/12/20 00:11:16;;;;;;;11.35;6.249999;;;;;;;2.59;80.47656;94062.86;;;;
2019/12/20 00:12:17;;;;;;;11.35;6.249999;;;;;;;2.59;80.47656;94062.86;;;;
2019/12/20 00:13:18;;;;;;;11.35;6.249999;;;;;;;2.59;80.47656;94062.86;;;;
2019/12/20 00:14:19;;;;;;;11.35;6.249999;;;;;;;2.59;80.47656;94062.86;;;;
2019/12/20 00:15:20;;;;;;;11.35;6.249999;;;;;;;2.59;80.47656;94062.86;;;;
2019/12/20 00:16:21;;;;;;;11.35;6.249999;;;;;;;2.59;80.47656;94062.86;;;;
2019/12/20 00:17:22;;;;;;;11.35;6.249999;;;;;;;2.59;80.47656;94062.86;;;;
2019/12/20 00:18:23;;;;;;;11.35;6.249999;;;;;;;2.59;80.47656;94062.86;;;;
2019/12/20 00:19:24;;;;;;;9.299998;5.749999;;;;;;;2.43;80.54102;94050.08;;;;
2019/12/20 00:20:25;;;;;;;9.299998;5.749999;;;;;;;2.43;80.54102;94050.08;;;;
2019/12/20 00:21:26;;;;;;;9.299998;5.749999;;;;;;;2.43;80.54102;94050.08;;;;
2019/12/20 00:22:28;;;;;;;9.299998;5.749999;;;;;;;2.43;80.54102;94050.08;;;;
2019/12/20 00:23:29;;;;;;;9.299998;5.749999;;;;;;;2.43;80.54102;94050.08;;;;
2019/12/20 00:24:30;;;;;;;9.299998;5.749999;;;;;;;2.43;80.54102;94050.08;;;;
2019/12/20 00:25:31;;;;;;;9.299998;5.749999;;;;;;;2.43;80.54102;94050.08;;;;
2019/12/20 00:26:32;;;;;;;9.299998;5.749999;;;;;;;2.43;80.54102;94050.08;;;;
2019/12/20 00:27:33;;;;;;;9.299998;5.749999;;;;;;;2.43;80.54102;94050.08;;;;
2019/12/20 00:28:34;;;;;;;9.299998;5.749999;;;;;;;2.43;80.54102;94050.08;;;;
2019/12/20 00:29:35;;;;;;;8.049999;5.65;;;;;;;2.33;80.8877;94024.96;;;;
2019/12/20 00:30:36;;;;;;;8.049999;5.65;;;;;;;2.33;80.8877;94024.96;;;;
2019/12/20 00:31:38;;;;;;;8.049999;5.65;;;;;;;2.33;80.8877;94024.96;;;;
2019/12/20 00:32:39;;;;;;;8.049999;5.65;;;;;;;2.33;80.8877;94024.96;;;;
2019/12/20 00:33:40;;;;;;;8.049999;5.65;;;;;;;2.33;80.8877;94024.96;;;;
2019/12/20 00:34:41;;;;;;;8.049999;5.65;;;;;;;2.33;80.8877;94024.96;;;;
2019/12/20 00:35:42;;;;;;;8.049999;5.65;;;;;;;2.33;80.8877;94024.96;;;;
2019/12/20 00:36:43;;;;;;;8.049999;5.65;;;;;;;2.33;80.8877;94024.96;;;;
2019/12/20 00:37:44;;;;;;;8.049999;5.65;;;;;;;2.33;80.8877;94024.96;;;;
2019/12/20 00:38:45;;;;;;;8.049999;5.65;;;;;;;2.33;80.8877;94024.96;;;;
2019/12/20 00:39:46;;;;;;;6.799999;4.599999;;;;;;;2.45;81.23535;94015.64;;;;
2019/12/20 00:40:48;;;;;;;6.799999;4.599999;;;;;;;2.45;81.23535;94015.64;;;;
2019/12/20 00:41:49;;;;;;;6.799999;4.599999;;;;;;;2.45;81.23535;94015.64;;;;
2019/12/20 00:42:50;;;;;;;6.799999;4.599999;;;;;;;2.45;81.23535;94015.64;;;;
2019/12/20 00:43:51;;;;;;;6.799999;4.599999;;;;;;;2.45;81.23535;94015.64;;;;
2019/12/20 00:44:52;;;;;;;6.799999;4.599999;;;;;;;2.45;81.23535;94015.64;;;;
2019/12/20 00:45:53;;;;;;;6.799999;4.599999;;;;;;;2.45;81.23535;94015.64;;;;
2019/12/20 00:46:54;;;;;;;6.799999;4.599999;;;;;;;2.45;81.23535;94015.64;;;;
2019/12/20 00:47:55;;;;;;;6.799999;4.599999;;;;;;;2.45;81.23535;94015.64;;;;
2019/12/20 00:48:56;;;;;;;6.799999;4.599999;;;;;;;2.45;81.23535;94015.64;;;;
2019/12/20 00:49:57;;;;;;;6.799999;4.599999;;;;;;;2.45;81.23535;94015.64;;;;
2019/12/20 00:50:58;;;;;;;5.55;4.3;;;;;;;2.7;81.13574;94017.91;;;;
2019/12/20 00:52:00;;;;;;;5.55;4.3;;;;;;;2.7;81.13574;94017.91;;;;
2019/12/20 00:53:01;;;;;;;5.55;4.3;;;;;;;2.7;81.13574;94017.91;;;;
2019/12/20 00:54:02;;;;;;;5.55;4.3;;;;;;;2.7;81.13574;94017.91;;;;
2019/12/20 00:55:03;;;;;;;5.55;4.3;;;;;;;2.7;81.13574;94017.91;;;;
2019/12/20 00:56:04;;;;;;;5.55;4.3;;;;;;;2.7;81.13574;94017.91;;;;
2019/12/20 00:57:05;;;;;;;5.55;4.3;;;;;;;2.7;81.13574;94017.91;;;;
2019/12/20 00:58:06;;;;;;;5.55;4.3;;;;;;;2.7;81.13574;94017.91;;;;
2019/12/20 00:59:07;;;;;;;5.55;4.3;;;;;;;2.7;81.13574;94017.91;;;;
2019/12/20 01:00:08;;;;;;;5.55;4.3;;;;;;;2.7;81.13574;94017.91;;;;
2019/12/20 01:01:10;;;;;;;6.099999;4.45;;;;;;;2.84;81.10938;94003.83;;;;
2019/12/20 01:02:11;;;;;;;6.099999;4.45;;;;;;;2.84;81.10938;94003.83;;;;
2019/12/20 01:03:12;;;;;;;6.099999;4.45;;;;;;;2.84;81.10938;94003.83;;;;
2019/12/20 01:04:13;;;;;;;6.099999;4.45;;;;;;;2.84;81.10938;94003.83;;;;
2019/12/20 01:05:14;;;;;;;6.099999;4.45;;;;;;;2.84;81.10938;94003.83;;;;
2019/12/20 01:06:15;;;;;;;6.099999;4.45;;;;;;;2.84;81.10938;94003.83;;;;
2019/12/20 01:07:16;;;;;;;6.099999;4.45;;;;;;;2.84;81.10938;94003.83;;;;
2019/12/20 01:08:17;;;;;;;6.099999;4.45;;;;;;;2.84;81.10938;94003.83;;;;
2019/12/20 01:09:18;;;;;;;6.099999;4.45;;;;;;;2.84;81.10938;94003.83;;;;
2019/12/20 01:10:19;;;;;;;6.099999;4.45;;;;;;;2.84;81.10938;94003.83;;;;
2019/12/20 01:11:21;;;;;;;6.099999;4.45;;;;;;;2.84;81.10938;94003.83;;;;
2019/12/20 01:12:22;;;;;;;6.05;4.35;;;;;;;3.13;81.29102;93987.5;;;;
2019/12/20 01:13:23;;;;;;;6.05;4.35;;;;;;;3.13;81.29102;93987.5;;;;
2019/12/20 01:14:24;;;;;;;6.05;4.35;;;;;;;3.13;81.29102;93987.5;;;;
2019/12/20 01:15:25;;;;;;;6.05;4.35;;;;;;;3.13;81.29102;93987.5;;;;
2019/12/20 01:16:26;;;;;;;6.05;4.35;;;;;;;3.13;81.29102;93987.5;;;;
2019/12/20 01:17:27;;;;;;;6.05;4.35;;;;;;;3.13;81.29102;93987.5;;;;
2019/12/20 01:18:28;;;;;;;6.05;4.35;;;;;;;3.13;81.29102;93987.5;;;;
2019/12/20 01:19:30;;;;;;;6.05;4.35;;;;;;;3.13;81.29102;93987.5;;;;
2019/12/20 01:20:31;;;;;;;6.05;4.35;;;;;;;3.13;81.29102;93987.5;;;;
2019/12/20 01:21:32;;;;;;;6.05;4.35;;;;;;;3.13;81.29102;93987.5;;;;
2019/12/20 01:22:33;;;;;;;5.95;3.6;;;;;;;3.44;81.44238;93993.19;;;;
2019/12/20 01:23:34;;;;;;;5.95;3.6;;;;;;;3.44;81.44238;93993.19;;;;
2019/12/20 01:24:35;;;;;;;5.95;3.6;;;;;;;3.44;81.44238;93993.19;;;;
2019/12/20 01:25:36;;;;;;;5.95;3.6;;;;;;;3.44;81.44238;93993.19;;;;
2019/12/20 01:26:37;;;;;;;5.95;3.6;;;;;;;3.44;81.44238;93993.19;;;;
2019/12/20 01:27:38;;;;;;;5.95;3.6;;;;;;;3.44;81.44238;93993.19;;;;
2019/12/20 01:28:40;;;;;;;5.95;3.6;;;;;;;3.44;81.44238;93993.19;;;;
2019/12/20 01:29:41;;;;;;;5.95;3.6;;;;;;;3.44;81.44238;93993.19;;;;
2019/12/20 01:30:42;;;;;;;5.95;3.6;;;;;;;3.44;81.44238;93993.19;;;;
2019/12/20 01:31:43;;;;;;;5.95;3.6;;;;;;;3.44;81.44238;93993.19;;;;
2019/12/20 01:32:44;;;;;;;5.95;3.6;;;;;;;3.44;81.44238;93993.19;;;;
2019/12/20 01:33:45;;;;;;;5.95;3.6;;;;;;;3.44;81.44238;93993.19;;;;
2019/12/20 01:34:47;;;;;;;5.95;3.6;;;;;;;3.44;81.44238;93993.19;;;;
2019/12/20 01:35:48;;;;;;;5.95;3.6;;;;;;;3.44;81.44238;93993.19;;;;
2019/12/20 01:36:49;;;;;;;5.95;3.6;;;;;;;3.44;81.44238;93993.19;;;;
2019/12/20 01:37:50;;;;;;;5.95;3.6;;;;;;;3.44;81.44238;93993.19;;;;
2019/12/20 01:38:51;;;;;;;5.95;3.6;;;;;;;3.44;81.44238;93993.19;;;;
2019/12/20 01:39:52;;;;;;;5.95;3.6;;;;;;;3.44;81.44238;93993.19;;;;
2019/12/20 01:40:53;;;;;;;5.95;3.6;;;;;;;3.44;81.44238;93993.19;;;;
2019/12/20 01:41:54;;;;;;;5.95;3.6;;;;;;;3.44;81.44238;93993.19;;;;
2019/12/20 01:42:55;;;;;;;5.95;3.6;;;;;;;3.44;81.44238;93993.19;;;;
2019/12/20 01:43:56;;;;;;;5.200001;2.75;;;;;;;4.91;81.62695;93973.99;;;;
2019/12/20 01:44:58;;;;;;;5.200001;2.75;;;;;;;4.91;81.62695;93973.99;;;;
2019/12/20 01:45:59;;;;;;;5.200001;2.75;;;;;;;4.91;81.62695;93973.99;;;;
2019/12/20 01:47:00;;;;;;;5.200001;2.75;;;;;;;4.91;81.62695;93973.99;;;;
2019/12/20 01:48:01;;;;;;;5.200001;2.75;;;;;;;4.91;81.62695;93973.99;;;;
2019/12/20 01:49:02;;;;;;;5.200001;2.75;;;;;;;4.91;81.62695;93973.99;;;;
2019/12/20 01:50:04;;;;;;;5.200001;2.75;;;;;;;4.91;81.62695;93973.99;;;;
2019/12/20 01:51:05;;;;;;;5.200001;2.75;;;;;;;4.91;81.62695;93973.99;;;;
2019/12/20 01:52:06;;;;;;;5.200001;2.75;;;;;;;4.91;81.62695;93973.99;;;;
2019/12/20 01:53:07;;;;;;;5.200001;2.75;;;;;;;4.91;81.62695;93973.99;;;;
2019/12/20 01:54:08;;;;;;;5.200001;2.75;;;;;;;4.91;81.62695;93973.99;;;;
2019/12/20 01:55:09;;;;;;;4.199999;2.6;;;;;;;5.76;80.72168;93948.61;;;;
2019/12/20 01:56:10;;;;;;;4.199999;2.6;;;;;;;5.76;80.72168;93948.61;;;;
2019/12/20 01:57:11;;;;;;;4.199999;2.6;;;;;;;5.76;80.72168;93948.61;;;;
2019/12/20 01:58:12;;;;;;;4.199999;2.6;;;;;;;5.76;80.72168;93948.61;;;;
2019/12/20 01:59:14;;;;;;;4.199999;2.6;;;;;;;5.76;80.72168;93948.61;;;;
2019/12/20 02:00:15;;;;;;;4.199999;2.6;;;;;;;5.76;80.72168;93948.61;;;;
2019/12/20 02:01:16;;;;;;;4.199999;2.6;;;;;;;5.76;80.72168;93948.61;;;;
2019/12/20 02:02:17;;;;;;;4.199999;2.6;;;;;;;5.76;80.72168;93948.61;;;;
2019/12/20 02:03:18;;;;;;;4.199999;2.6;;;;;;;5.76;80.72168;93948.61;;;;
2019/12/20 02:04:19;;;;;;;4.199999;2.6;;;;;;;5.76;80.72168;93948.61;;;;
2019/12/20 02:05:20;;;;;;;6.099999;2.85;;;;;;;6.4;80.04785;93929.97;;;;
2019/12/20 02:06:22;;;;;;;6.099999;2.85;;;;;;;6.4;80.04785;93929.97;;;;
2019/12/20 02:07:23;;;;;;;6.099999;2.85;;;;;;;6.4;80.04785;93929.97;;;;
2019/12/20 02:08:24;;;;;;;6.099999;2.85;;;;;;;6.4;80.04785;93929.97;;;;
2019/12/20 02:09:25;;;;;;;6.099999;2.85;;;;;;;6.4;80.04785;93929.97;;;;
2019/12/20 02:10:26;;;;;;;6.099999;2.85;;;;;;;6.4;80.04785;93929.97;;;;
2019/12/20 02:11:27;;;;;;;6.099999;2.85;;;;;;;6.4;80.04785;93929.97;;;;
2019/12/20 02:12:29;;;;;;;6.099999;2.85;;;;;;;6.4;80.04785;93929.97;;;;
2019/12/20 02:13:30;;;;;;;6.099999;2.85;;;;;;;6.4;80.04785;93929.97;;;;
2019/12/20 02:14:31;;;;;;;6.099999;2.85;;;;;;;6.4;80.04785;93929.97;;;;
2019/12/20 02:15:32;;;;;;;3.3;2.7;;;;;;;6.96;79.08008;93920.5;;;;
2019/12/20 02:16:33;;;;;;;3.3;2.7;;;;;;;6.96;79.08008;93920.5;;;;
2019/12/20 02:17:34;;;;;;;3.3;2.7;;;;;;;6.96;79.08008;93920.5;;;;
2019/12/20 02:18:35;;;;;;;3.3;2.7;;;;;;;6.96;79.08008;93920.5;;;;
2019/12/20 02:19:37;;;;;;;3.3;2.7;;;;;;;6.96;79.08008;93920.5;;;;
2019/12/20 02:20:38;;;;;;;3.3;2.7;;;;;;;6.96;79.08008;93920.5;;;;
2019/12/20 02:21:39;;;;;;;3.3;2.7;;;;;;;6.96;79.08008;93920.5;;;;
2019/12/20 02:22:40;;;;;;;3.3;2.7;;;;;;;6.96;79.08008;93920.5;;;;
2019/12/20 02:23:41;;;;;;;3.3;2.7;;;;;;;6.96;79.08008;93920.5;;;;
2019/12/20 02:24:42;;;;;;;3.3;2.7;;;;;;;6.96;79.08008;93920.5;;;;
2019/12/20 02:25:43;;;;;;;3.3;2.7;;;;;;;6.96;79.08008;93920.5;;;;
2019/12/20 02:26:45;;;;;;;4.75;2.5;;;;;;;7.39;78.18359;93908.47;;;;
2019/12/20 02:27:46;;;;;;;4.75;2.5;;;;;;;7.39;78.18359;93908.47;;;;
2019/12/20 02:28:47;;;;;;;4.75;2.5;;;;;;;7.39;78.18359;93908.47;;;;
2019/12/20 02:29:48;;;;;;;4.75;2.5;;;;;;;7.39;78.18359;93908.47;;;;
2019/12/20 02:30:49;;;;;;;4.75;2.5;;;;;;;7.39;78.18359;93908.47;;;;
2019/12/20 02:31:50;;;;;;;4.75;2.5;;;;;;;7.39;78.18359;93908.47;;;;
2019/12/20 02:32:51;;;;;;;4.75;2.5;;;;;;;7.39;78.18359;93908.47;;;;
2019/12/20 02:33:53;;;;;;;4.75;2.5;;;;;;;7.39;78.18359;93908.47;;;;
2019/12/20 02:34:54;;;;;;;4.75;2.5;;;;;;;7.39;78.18359;93908.47;;;;
2019/12/20 02:35:55;;;;;;;4.75;2.5;;;;;;;7.39;78.18359;93908.47;;;;
2019/12/20 02:36:56;;;;;;;4.75;2.5;;;;;;;7.39;78.18359;93908.47;;;;
2019/12/20 02:37:57;;;;;;;4.75;2.5;;;;;;;7.39;78.18359;93908.47;;;;
2019/12/20 02:38:58;;;;;;;4.75;2.5;;;;;;;7.39;78.18359;93908.47;;;;
2019/12/20 02:40:00;;;;;;;4.75;2.5;;;;;;;7.39;78.18359;93908.47;;;;
2019/12/20 02:41:01;;;;;;;4.75;2.5;;;;;;;7.39;78.18359;93908.47;;;;
2019/12/20 02:42:02;;;;;;;4.75;2.5;;;;;;;7.39;78.18359;93908.47;;;;
2019/12/20 02:43:03;;;;;;;4.75;2.5;;;;;;;7.39;78.18359;93908.47;;;;
2019/12/20 02:44:04;;;;;;;4.75;2.5;;;;;;;7.39;78.18359;93908.47;;;;
2019/12/20 02:45:05;;;;;;;4.75;2.5;;;;;;;7.39;78.18359;93908.47;;;;
2019/12/20 02:46:07;;;;;;;4.75;2.5;;;;;;;7.39;78.18359;93908.47;;;;
2019/12/20 02:47:08;;;;;;;4.75;2.5;;;;;;;7.39;78.18359;93908.47;;;;
2019/12/20 02:48:09;;;;;;;4.75;2.4;;;;;;;8.22;75.71582;93886.52;;;;
2019/12/20 02:49:10;;;;;;;4.75;2.4;;;;;;;8.22;75.71582;93886.52;;;;
2019/12/20 02:50:11;;;;;;;4.75;2.4;;;;;;;8.22;75.71582;93886.52;;;;
2019/12/20 02:51:12;;;;;;;4.75;2.4;;;;;;;8.22;75.71582;93886.52;;;;
2019/12/20 02:52:14;;;;;;;4.75;2.4;;;;;;;8.22;75.71582;93886.52;;;;
2019/12/20 02:53:15;;;;;;;4.75;2.4;;;;;;;8.22;75.71582;93886.52;;;;
2019/12/20 02:54:16;;;;;;;4.75;2.4;;;;;;;8.22;75.71582;93886.52;;;;
2019/12/20 02:55:17;;;;;;;4.75;2.4;;;;;;;8.22;75.71582;93886.52;;;;
2019/12/20 02:56:18;;;;;;;4.75;2.4;;;;;;;8.22;75.71582;93886.52;;;;
2019/12/20 02:57:19;;;;;;;4.75;2.4;;;;;;;8.22;75.71582;93886.52;;;;
2019/12/20 02:58:21;;;;;;;4.7;2.5;;;;;;;8.45;74.62793;93870.07;;;;
2019/12/20 02:59:22;;;;;;;4.7;2.5;;;;;;;8.45;74.62793;93870.07;;;;
2019/12/20 03:00:23;;;;;;;4.7;2.5;;;;;;;8.45;74.62793;93870.07;;;;
2019/12/20 03:01:24;;;;;;;4.7;2.5;;;;;;;8.45;74.62793;93870.07;;;;
2019/12/20 03:02:25;;;;;;;4.7;2.5;;;;;;;8.45;74.62793;93870.07;;;;
2019/12/20 03:03:26;;;;;;;4.7;2.5;;;;;;;8.45;74.62793;93870.07;;;;
2019/12/20 03:04:28;;;;;;;4.7;2.5;;;;;;;8.45;74.62793;93870.07;;;;
2019/12/20 03:05:29;;;;;;;4.7;2.5;;;;;;;8.45;74.62793;93870.07;;;;
2019/12/20 03:06:30;;;;;;;4.7;2.5;;;;;;;8.45;74.62793;93870.07;;;;
2019/12/20 03:07:31;;;;;;;4.7;2.5;;;;;;;8.45;74.62793;93870.07;;;;
2019/12/20 03:08:32;;;;;;;4.7;2.5;;;;;;;8.45;74.62793;93870.07;;;;
2019/12/20 03:09:33;;;;;;;3.750001;2.5;;;;;;;8.62;74.02832;93843.44;;;;
2019/12/20 03:10:34;;;;;;;3.750001;2.5;;;;;;;8.62;74.02832;93843.44;;;;
2019/12/20 03:11:35;;;;;;;3.750001;2.5;;;;;;;8.62;74.02832;93843.44;;;;
2019/12/20 03:12:37;;;;;;;3.750001;2.5;;;;;;;8.62;74.02832;93843.44;;;;
2019/12/20 03:13:38;;;;;;;3.750001;2.5;;;;;;;8.62;74.02832;93843.44;;;;
2019/12/20 03:14:39;;;;;;;3.750001;2.5;;;;;;;8.62;74.02832;93843.44;;;;
2019/12/20 03:15:40;;;;;;;3.750001;2.5;;;;;;;8.62;74.02832;93843.44;;;;
2019/12/20 03:16:41;;;;;;;3.750001;2.5;;;;;;;8.62;74.02832;93843.44;;;;
2019/12/20 03:17:42;;;;;;;3.750001;2.5;;;;;;;8.62;74.02832;93843.44;;;;
2019/12/20 03:18:43;;;;;;;3.750001;2.5;;;;;;;8.62;74.02832;93843.44;;;;
2019/12/20 03:19:45;;;;;;;3.75;2.4;;;;;;;8.55;73.58105;93814.06;;;;
2019/12/20 03:20:46;;;;;;;3.75;2.4;;;;;;;8.55;73.58105;93814.06;;;;
2019/12/20 03:21:47;;;;;;;3.75;2.4;;;;;;;8.55;73.58105;93814.06;;;;
2019/12/20 03:22:48;;;;;;;3.75;2.4;;;;;;;8.55;73.58105;93814.06;;;;
2019/12/20 03:23:50;;;;;;;3.75;2.4;;;;;;;8.55;73.58105;93814.06;;;;
2019/12/20 03:24:51;;;;;;;3.75;2.4;;;;;;;8.55;73.58105;93814.06;;;;
2019/12/20 03:25:52;;;;;;;3.75;2.4;;;;;;;8.55;73.58105;93814.06;;;;
2019/12/20 03:26:53;;;;;;;3.75;2.4;;;;;;;8.55;73.58105;93814.06;;;;
2019/12/20 03:27:54;;;;;;;3.75;2.4;;;;;;;8.55;73.58105;93814.06;;;;
2019/12/20 03:28:55;;;;;;;3.75;2.4;;;;;;;8.55;73.58105;93814.06;;;;
2019/12/20 03:29:57;;;;;;;3.75;2.4;;;;;;;8.55;73.58105;93814.06;;;;
2019/12/20 03:30:58;;;;;;;2.900001;2.5;;;;;;;8.61;73.30273;93785.72;;;;
2019/12/20 03:31:59;;;;;;;2.900001;2.5;;;;;;;8.61;73.30273;93785.72;;;;
2019/12/20 03:33:00;;;;;;;2.900001;2.5;;;;;;;8.61;73.30273;93785.72;;;;
2019/12/20 03:34:01;;;;;;;2.900001;2.5;;;;;;;8.61;73.30273;93785.72;;;;
2019/12/20 03:35:02;;;;;;;2.900001;2.5;;;;;;;8.61;73.30273;93785.72;;;;
2019/12/20 03:36:03;;;;;;;2.900001;2.5;;;;;;;8.61;73.30273;93785.72;;;;
2019/12/20 03:37:04;;;;;;;2.900001;2.5;;;;;;;8.61;73.30273;93785.72;;;;
2019/12/20 03:38:06;;;;;;;2.900001;2.5;;;;;;;8.61;73.30273;93785.72;;;;
2019/12/20 03:39:07;;;;;;;2.900001;2.5;;;;;;;8.61;73.30273;93785.72;;;;
2019/12/20 03:40:08;;;;;;;2.900001;2.5;;;;;;;8.61;73.30273;93785.72;;;;
2019/12/20 03:41:09;;;;;;;4;2.35;;;;;;;8.44;72.86914;93744.59;;;;
2019/12/20 03:42:10;;;;;;;4;2.35;;;;;;;8.44;72.86914;93744.59;;;;
2019/12/20 03:43:11;;;;;;;4;2.35;;;;;;;8.44;72.86914;93744.59;;;;
2019/12/20 03:44:12;;;;;;;4;2.35;;;;;;;8.44;72.86914;93744.59;;;;
2019/12/20 03:45:14;;;;;;;4;2.35;;;;;;;8.44;72.86914;93744.59;;;;
2019/12/20 03:46:15;;;;;;;4;2.35;;;;;;;8.44;72.86914;93744.59;;;;
2019/12/20 03:47:16;;;;;;;4;2.35;;;;;;;8.44;72.86914;93744.59;;;;
2019/12/20 03:48:17;;;;;;;4;2.35;;;;;;;8.44;72.86914;93744.59;;;;
2019/12/20 03:49:18;;;;;;;4;2.35;;;;;;;8.44;72.86914;93744.59;;;;
2019/12/20 03:50:19;;;;;;;4;2.35;;;;;;;8.44;72.86914;93744.59;;;;
2019/12/20 03:51:20;;;;;;;4;2.35;;;;;;;8.44;72.86914;93744.59;;;;
2019/12/20 03:52:21;;;;;;;2.6;2.3;;;;;;;8.44;72.50684;93713.67;;;;
2019/12/20 03:53:22;;;;;;;2.6;2.3;;;;;;;8.44;72.50684;93713.67;;;;
2019/12/20 03:54:24;;;;;;;2.6;2.3;;;;;;;8.44;72.50684;93713.67;;;;
2019/12/20 03:55:25;;;;;;;2.6;2.3;;;;;;;8.44;72.50684;93713.67;;;;
2019/12/20 03:56:26;;;;;;;2.6;2.3;;;;;;;8.44;72.50684;93713.67;;;;
2019/12/20 03:57:27;;;;;;;2.6;2.3;;;;;;;8.44;72.50684;93713.67;;;;
2019/12/20 03:58:28;;;;;;;2.6;2.3;;;;;;;8.44;72.50684;93713.67;;;;
2019/12/20 03:59:29;;;;;;;2.6;2.3;;;;;;;8.44;72.50684;93713.67;;;;
2019/12/20 04:00:30;;;;;;;2.6;2.3;;;;;;;8.44;72.50684;93713.67;;;;
2019/12/20 04:01:32;;;;;;;2.6;2.3;;;;;;;8.44;72.50684;93713.67;;;;
2019/12/20 04:02:33;;;;;;;4.099999;2.1;;;;;;;8.43;72.12207;93713.94;;;;
2019/12/20 04:03:35;;;;;;;4.099999;2.1;;;;;;;8.43;72.12207;93713.94;;;;
2019/12/20 04:04:36;;;;;;;4.099999;2.1;;;;;;;8.43;72.12207;93713.94;;;;
2019/12/20 04:05:37;;;;;;;4.099999;2.1;;;;;;;8.43;72.12207;93713.94;;;;
2019/12/20 04:06:39;;;;;;;4.099999;2.1;;;;;;;8.43;72.12207;93713.94;;;;
2019/12/20 04:07:40;;;;;;;4.099999;2.1;;;;;;;8.43;72.12207;93713.94;;;;
2019/12/20 04:08:41;;;;;;;4.099999;2.1;;;;;;;8.43;72.12207;93713.94;;;;
2019/12/20 04:09:42;;;;;;;4.099999;2.1;;;;;;;8.43;72.12207;93713.94;;;;
2019/12/20 04:10:43;;;;;;;4.099999;2.1;;;;;;;8.43;72.12207;93713.94;;;;
2019/12/20 04:11:44;;;;;;;4.099999;2.1;;;;;;;8.43;72.12207;93713.94;;;;
2019/12/20 04:12:45;;;;;;;4.1;2.2;;;;;;;8.33;71.81738;93682.93;;;;
2019/12/20 04:13:46;;;;;;;4.1;2.2;;;;;;;8.33;71.81738;93682.93;;;;
2019/12/20 04:14:48;;;;;;;4.1;2.2;;;;;;;8.33;71.81738;93682.93;;;;
2019/12/20 04:15:49;;;;;;;4.1;2.2;;;;;;;8.33;71.81738;93682.93;;;;
2019/12/20 04:16:50;;;;;;;4.1;2.2;;;;;;;8.33;71.81738;93682.93;;;;
2019/12/20 04:17:51;;;;;;;4.1;2.2;;;;;;;8.33;71.81738;93682.93;;;;
2019/12/20 04:18:52;;;;;;;4.1;2.2;;;;;;;8.33;71.81738;93682.93;;;;
2019/12/20 04:19:53;;;;;;;4.1;2.2;;;;;;;8.33;71.81738;93682.93;;;;
2019/12/20 04:20:54;;;;;;;4.1;2.2;;;;;;;8.33;71.81738;93682.93;;;;
2019/12/20 04:21:55;;;;;;;4.1;2.2;;;;;;;8.33;71.81738;93682.93;;;;
2019/12/20 04:22:56;;;;;;;4.1;2.2;;;;;;;8.33;71.81738;93682.93;;;;
2019/12/20 04:23:57;;;;;;;3;2.6;;;;;;;8.02;71.95898;93665.8;;;;
2019/12/20 04:24:59;;;;;;;3;2.6;;;;;;;8.02;71.95898;93665.8;;;;
2019/12/20 04:26:00;;;;;;;3;2.6;;;;;;;8.02;71.95898;93665.8;;;;
2019/12/20 04:27:01;;;;;;;3;2.6;;;;;;;8.02;71.95898;93665.8;;;;
2019/12/20 04:28:02;;;;;;;3;2.6;;;;;;;8.02;71.95898;93665.8;;;;
2019/12/20 04:29:03;;;;;;;3;2.6;;;;;;;8.02;71.95898;93665.8;;;;
2019/12/20 04:30:04;;;;;;;3;2.6;;;;;;;8.02;71.95898;93665.8;;;;
2019/12/20 04:31:05;;;;;;;3;2.6;;;;;;;8.02;71.95898;93665.8;;;;
2019/12/20 04:32:06;;;;;;;3;2.6;;;;;;;8.02;71.95898;93665.8;;;;
2019/12/20 04:33:08;;;;;;;3;2.6;;;;;;;8.02;71.95898;93665.8;;;;
2019/12/20 04:34:09;;;;;;;4.9;2.4;;;;;;;7.79;71.97266;93656.37;;;;
2019/12/20 04:35:10;;;;;;;4.9;2.4;;;;;;;7.79;71.97266;93656.37;;;;
2019/12/20 04:36:11;;;;;;;4.9;2.4;;;;;;;7.79;71.97266;93656.37;;;;
2019/12/20 04:37:12;;;;;;;4.9;2.4;;;;;;;7.79;71.97266;93656.37;;;;
2019/12/20 04:38:13;;;;;;;4.9;2.4;;;;;;;7.79;71.97266;93656.37;;;;
2019/12/20 04:39:14;;;;;;;4.9;2.4;;;;;;;7.79;71.97266;93656.37;;;;
2019/12/20 04:40:15;;;;;;;4.9;2.4;;;;;;;7.79;71.97266;93656.37;;;;
2019/12/20 04:41:17;;;;;;;4.9;2.4;;;;;;;7.79;71.97266;93656.37;;;;
2019/12/20 04:42:18;;;;;;;4.9;2.4;;;;;;;7.79;71.97266;93656.37;;;;
2019/12/20 04:43:19;;;;;;;4.9;2.4;;;;;;;7.79;71.97266;93656.37;;;;
2019/12/20 04:44:20;;;;;;;4.9;2.4;;;;;;;7.79;71.97266;93656.37;;;;
2019/12/20 04:45:21;;;;;;;4.5;2.15;;;;;;;7.49;72.04004;93631.98;;;;
2019/12/20 04:46:22;;;;;;;4.5;2.15;;;;;;;7.49;72.04004;93631.98;;;;
2019/12/20 04:47:23;;;;;;;4.5;2.15;;;;;;;7.49;72.04004;93631.98;;;;
2019/12/20 04:48:24;;;;;;;4.5;2.15;;;;;;;7.49;72.04004;93631.98;;;;
2019/12/20 04:49:25;;;;;;;4.5;2.15;;;;;;;7.49;72.04004;93631.98;;;;
2019/12/20 04:50:26;;;;;;;4.5;2.15;;;;;;;7.49;72.04004;93631.98;;;;
2019/12/20 04:51:28;;;;;;;4.5;2.15;;;;;;;7.49;72.04004;93631.98;;;;
2019/12/20 04:52:29;;;;;;;4.5;2.15;;;;;;;7.49;72.04004;93631.98;;;;
2019/12/20 04:53:30;;;;;;;4.5;2.15;;;;;;;7.49;72.04004;93631.98;;;;
2019/12/20 04:54:31;;;;;;;4.5;2.15;;;;;;;7.49;72.04004;93631.98;;;;
2019/12/20 04:55:32;;;;;;;2.45;2.2;;;;;;;7.1;72.18652;93604.17;;;;
2019/12/20 04:56:33;;;;;;;2.45;2.2;;;;;;;7.1;72.18652;93604.17;;;;
2019/12/20 04:57:34;;;;;;;2.45;2.2;;;;;;;7.1;72.18652;93604.17;;;;
2019/12/20 04:58:35;;;;;;;2.45;2.2;;;;;;;7.1;72.18652;93604.17;;;;
2019/12/20 04:59:36;;;;;;;2.45;2.2;;;;;;;7.1;72.18652;93604.17;;;;
2019/12/20 05:00:37;;;;;;;2.45;2.2;;;;;;;7.1;72.18652;93604.17;;;;
2019/12/20 05:01:39;;;;;;;2.45;2.2;;;;;;;7.1;72.18652;93604.17;;;;
2019/12/20 05:02:40;;;;;;;2.45;2.2;;;;;;;7.1;72.18652;93604.17;;;;
2019/12/20 05:03:41;;;;;;;2.45;2.2;;;;;;;7.1;72.18652;93604.17;;;;
2019/12/20 05:04:42;;;;;;;2.45;2.2;;;;;;;7.1;72.18652;93604.17;;;;
2019/12/20 05:05:43;;;;;;;5.4;2.3;;;;;;;6.65;72.39063;93587.53;;;;
2019/12/20 05:06:44;;;;;;;5.4;2.3;;;;;;;6.65;72.39063;93587.53;;;;
2019/12/20 05:07:45;;;;;;;5.4;2.3;;;;;;;6.65;72.39063;93587.53;;;;
2019/12/20 05:08:46;;;;;;;5.4;2.3;;;;;;;6.65;72.39063;93587.53;;;;
2019/12/20 05:09:47;;;;;;;5.4;2.3;;;;;;;6.65;72.39063;93587.53;;;;
2019/12/20 05:10:48;;;;;;;5.4;2.3;;;;;;;6.65;72.39063;93587.53;;;;
2019/12/20 05:11:49;;;;;;;5.4;2.3;;;;;;;6.65;72.39063;93587.53;;;;
2019/12/20 05:12:51;;;;;;;5.4;2.3;;;;;;;6.65;72.39063;93587.53;;;;
2019/12/20 05:13:52;;;;;;;5.4;2.3;;;;;;;6.65;72.39063;93587.53;;;;
2019/12/20 05:14:53;;;;;;;5.4;2.3;;;;;;;6.65;72.39063;93587.53;;;;
2019/12/20 05:15:54;;;;;;;5.4;2.3;;;;;;;6.65;72.39063;93587.53;;;;
2019/12/20 05:16:55;;;;;;;3.25;2.3;;;;;;;6.23;72.64844;93557.46;;;;
2019/12/20 05:17:56;;;;;;;3.25;2.3;;;;;;;6.23;72.64844;93557.46;;;;
2019/12/20 05:18:57;;;;;;;3.25;2.3;;;;;;;6.23;72.64844;93557.46;;;;
2019/12/20 05:19:58;;;;;;;3.25;2.3;;;;;;;6.23;72.64844;93557.46;;;;
2019/12/20 05:20:59;;;;;;;3.25;2.3;;;;;;;6.23;72.64844;93557.46;;;;
2019/12/20 05:22:01;;;;;;;3.25;2.3;;;;;;;6.23;72.64844;93557.46;;;;
2019/12/20 05:23:02;;;;;;;3.25;2.3;;;;;;;6.23;72.64844;93557.46;;;;
2019/12/20 05:24:03;;;;;;;3.25;2.3;;;;;;;6.23;72.64844;93557.46;;;;
2019/12/20 05:25:04;;;;;;;3.25;2.3;;;;;;;6.23;72.64844;93557.46;;;;
2019/12/20 05:26:05;;;;;;;3.25;2.3;;;;;;;6.23;72.64844;93557.46;;;;
2019/12/20 05:27:06;;;;;;;4.05;2.35;;;;;;;5.87;72.95703;93539.87;;;;
2019/12/20 05:28:07;;;;;;;4.05;2.35;;;;;;;5.87;72.95703;93539.87;;;;
2019/12/20 05:29:08;;;;;;;4.05;2.35;;;;;;;5.87;72.95703;93539.87;;;;
2019/12/20 05:30:09;;;;;;;4.05;2.35;;;;;;;5.87;72.95703;93539.87;;;;
2019/12/20 05:31:11;;;;;;;4.05;2.35;;;;;;;5.87;72.95703;93539.87;;;;
2019/12/20 05:32:12;;;;;;;4.05;2.35;;;;;;;5.87;72.95703;93539.87;;;;
2019/12/20 05:33:13;;;;;;;4.05;2.35;;;;;;;5.87;72.95703;93539.87;;;;
2019/12/20 05:34:14;;;;;;;4.05;2.35;;;;;;;5.87;72.95703;93539.87;;;;
2019/12/20 05:35:15;;;;;;;4.05;2.35;;;;;;;5.87;72.95703;93539.87;;;;
2019/12/20 05:36:16;;;;;;;4.05;2.35;;;;;;;5.87;72.95703;93539.87;;;;
2019/12/20 05:37:17;;;;;;;4.05;2.35;;;;;;;5.87;72.95703;93539.87;;;;
2019/12/20 05:38:18;;;;;;;4.6;2.45;;;;;;;5.59;73.13281;93514.5;;;;
2019/12/20 05:39:20;;;;;;;4.6;2.45;;;;;;;5.59;73.13281;93514.5;;;;
2019/12/20 05:40:21;;;;;;;4.6;2.45;;;;;;;5.59;73.13281;93514.5;;;;
2019/12/20 05:41:22;;;;;;;4.6;2.45;;;;;;;5.59;73.13281;93514.5;;;;
2019/12/20 05:42:24;;;;;;;4.6;2.45;;;;;;;5.59;73.13281;93514.5;;;;
2019/12/20 05:43:25;;;;;;;4.6;2.45;;;;;;;5.59;73.13281;93514.5;;;;
2019/12/20 05:44:26;;;;;;;4.6;2.45;;;;;;;5.59;73.13281;93514.5;;;;
2019/12/20 05:45:29;;;;;;;4.6;2.45;;;;;;;5.59;73.13281;93514.5;;;;
2019/12/20 05:46:30;;;;;;;4.6;2.45;;;;;;;5.59;73.13281;93514.5;;;;
2019/12/20 05:47:31;;;;;;;4.6;2.45;;;;;;;5.59;73.13281;93514.5;;;;
2019/12/20 05:48:32;;;;;;;4.850001;2.45;;;;;;;5.16;73.35547;93500.25;;;;
2019/12/20 05:49:33;;;;;;;4.850001;2.45;;;;;;;5.16;73.35547;93500.25;;;;
2019/12/20 05:50:34;;;;;;;4.850001;2.45;;;;;;;5.16;73.35547;93500.25;;;;
2019/12/20 05:51:35;;;;;;;4.850001;2.45;;;;;;;5.16;73.35547;93500.25;;;;
2019/12/20 05:52:37;;;;;;;4.850001;2.45;;;;;;;5.16;73.35547;93500.25;;;;
2019/12/20 05:53:38;;;;;;;4.850001;2.45;;;;;;;5.16;73.35547;93500.25;;;;
2019/12/20 05:54:39;;;;;;;4.850001;2.45;;;;;;;5.16;73.35547;93500.25;;;;
2019/12/20 05:55:40;;;;;;;4.850001;2.45;;;;;;;5.16;73.35547;93500.25;;;;